Time;durP1;ratioP1;P1;durP2;ratioP2;P2;SDS_P1;SDS_P2;PMS_P1;PMS_P2;Temp;Humidity;BMP_temperature;BMP_pressure;BME280_temperature;BME280_humidity;BME280_pressure;Samples;Min_cycle;Max_cycle;Signal;HPM_P1;HPM_P2
2023/01/30 00:01:41;;;;;;;8.15;3.80;;;;;;;5.39;100.00;101320.34;4930408;28;20054;-73
2023/01/30 00:04:07;;;;;;;6.18;3.90;;;;;;;5.40;100.00;101327.31;4935013;28;20105;-73
2023/01/30 00:06:33;;;;;;;6.65;3.45;;;;;;;5.41;100.00;101327.28;4948628;28;20778;-73
2023/01/30 00:08:58;;;;;;;8.52;3.35;;;;;;;5.42;100.00;101309.78;4946969;28;20051;-72
2023/01/30 00:11:24;;;;;;;7.82;3.33;;;;;;;5.44;100.00;101305.34;4965190;28;20042;-72
2023/01/30 00:13:50;;;;;;;11.70;3.70;;;;;;;5.42;100.00;101280.88;4949665;28;20085;-72
2023/01/30 00:16:16;;;;;;;10.40;3.75;;;;;;;5.43;100.00;101280.88;4949133;28;20038;-72
2023/01/30 00:18:43;;;;;;;8.07;3.10;;;;;;;5.45;100.00;101278.19;4961268;28;20031;-72
2023/01/30 00:21:11;;;;;;;7.43;3.47;;;;;;;5.45;100.00;101275.56;4950230;28;20079;-72
2023/01/30 00:23:37;;;;;;;5.18;3.03;;;;;;;5.43;100.00;101272.09;4949466;28;20054;-72
2023/01/30 00:26:04;;;;;;;6.90;2.95;;;;;;;5.40;100.00;101272.19;4949438;28;20658;-72
2023/01/30 00:28:29;;;;;;;6.38;2.88;;;;;;;5.37;100.00;101261.72;4946638;28;20117;-72
2023/01/30 00:30:55;;;;;;;9.20;2.80;;;;;;;5.33;100.00;101257.41;4949844;28;20433;-73
2023/01/30 00:33:25;;;;;;;11.07;3.50;;;;;;;5.30;100.00;101248.69;4961386;28;20506;-72
2023/01/30 00:35:52;;;;;;;6.70;3.25;;;;;;;5.27;100.00;101254.00;4929481;28;20050;-73
2023/01/30 00:38:18;;;;;;;5.68;2.83;;;;;;;5.24;100.00;101251.41;4947486;28;21019;-73
2023/01/30 00:40:45;;;;;;;5.68;2.80;;;;;;;5.24;100.00;101261.06;4948638;28;20038;-72
2023/01/30 00:48:41;;;;;;;8.98;3.40;;;;;;;5.19;100.00;101255.88;4947456;28;20026;-73
2023/01/30 00:51:07;;;;;;;7.32;2.72;;;;;;;5.19;100.00;101255.00;4948964;28;20667;-72
2023/01/30 00:53:32;;;;;;;7.00;2.92;;;;;;;5.17;100.00;101244.53;4948774;28;20038;-72
2023/01/30 00:55:58;;;;;;;9.45;3.22;;;;;;;5.16;100.00;101242.78;4944577;28;20058;-73
2023/01/30 00:58:24;;;;;;;8.50;3.35;;;;;;;5.14;100.00;101224.44;4948214;28;20490;-73
2023/01/30 01:00:50;;;;;;;10.52;3.60;;;;;;;5.14;100.00;101231.47;4960303;28;20035;-73
2023/01/30 01:03:16;;;;;;;8.55;3.65;;;;;;;5.15;100.00;101222.69;4946320;28;20169;-73
2023/01/30 01:05:42;;;;;;;12.98;3.33;;;;;;;5.14;100.00;101228.84;4948441;28;20926;-73
2023/01/30 01:08:08;;;;;;;10.07;3.33;;;;;;;5.12;100.00;101225.38;4949225;28;20039;-73
2023/01/30 01:10:33;;;;;;;7.85;3.80;;;;;;;5.13;100.00;101225.34;4947705;28;20030;-73
2023/01/30 01:12:59;;;;;;;6.97;3.22;;;;;;;5.12;100.00;101214.88;4947962;28;20054;-73
2023/01/30 01:15:25;;;;;;;7.63;3.13;;;;;;;5.13;100.00;101224.47;4943965;28;20315;-73
2023/01/30 01:17:51;;;;;;;10.77;3.90;;;;;;;5.15;100.00;101220.06;4959552;28;20039;-72
2023/01/30 01:20:17;;;;;;;11.50;3.55;;;;;;;5.13;100.00;101209.59;4948770;28;20137;-72
2023/01/30 01:22:43;;;;;;;8.57;3.63;;;;;;;5.13;100.00;101217.47;4946072;28;20051;-74
2023/01/30 01:25:09;;;;;;;13.73;3.70;;;;;;;5.12;100.00;101209.63;4960193;28;20063;-73
2023/01/30 01:27:35;;;;;;;6.68;3.38;;;;;;;5.14;100.00;101208.69;4958947;28;20050;-73
2023/01/30 01:30:01;;;;;;;8.35;4.05;;;;;;;5.14;100.00;101211.31;4962245;28;20042;-73
2023/01/30 01:32:26;;;;;;;14.18;4.00;;;;;;;5.14;100.00;101210.47;4946510;28;20042;-73
2023/01/30 01:34:52;;;;;;;8.63;3.50;;;;;;;5.14;100.00;101218.34;4946780;28;20101;-73
2023/01/30 01:37:17;;;;;;;11.55;4.07;;;;;;;5.15;100.00;101217.44;4953372;28;20089;-74
2023/01/30 01:42:34;;;;;;;8.40;3.28;;;;;;;5.14;100.00;101189.47;4948299;28;20058;-73
2023/01/30 01:45:10;;;;;;;5.40;2.97;;;;;;;5.13;100.00;101193.00;4947874;28;20030;-73
2023/01/30 01:47:38;;;;;;;14.85;3.78;;;;;;;5.14;100.00;101199.97;4947895;28;20035;-72
2023/01/30 01:50:04;;;;;;;9.25;3.17;;;;;;;5.15;100.00;101188.56;4946357;28;20035;-73
2023/01/30 01:52:30;;;;;;;11.85;3.30;;;;;;;5.16;100.00;101196.44;4947819;28;20643;-74
2023/01/30 01:55:01;;;;;;;8.55;3.72;;;;;;;5.18;100.00;101182.41;4947531;28;20628;-73
2023/01/30 01:57:33;;;;;;;8.07;3.88;;;;;;;5.20;100.00;101197.25;4948060;28;21234;-73
2023/01/30 02:00:18;;;;;;;10.00;2.83;;;;;;;5.20;100.00;101205.13;4944974;28;20047;-73
2023/01/30 02:02:49;;;;;;;12.13;3.42;;;;;;;5.19;100.00;101200.75;4948024;28;20558;-73
2023/01/30 02:05:16;;;;;;;9.07;2.85;;;;;;;5.21;100.00;101198.97;4946975;28;20039;-73
2023/01/30 02:07:50;;;;;;;16.58;3.38;;;;;;;5.21;100.00;101198.97;4943968;28;20094;-74
2023/01/30 02:10:18;;;;;;;12.57;3.50;;;;;;;5.21;100.00;101193.72;4947236;28;20046;-73
2023/01/30 02:12:44;;;;;;;14.07;3.33;;;;;;;5.22;100.00;101207.72;4946958;28;20027;-73
2023/01/30 02:15:10;;;;;;;9.35;2.88;;;;;;;5.21;100.00;101198.97;4945423;28;20077;-72
2023/01/30 02:17:36;;;;;;;13.35;4.00;;;;;;;5.23;100.00;101188.44;4948022;28;20108;-72
2023/01/30 02:20:29;;;;;;;13.10;3.80;;;;;;;5.22;100.00;101203.31;4962182;28;20050;-72
2023/01/30 02:23:14;;;;;;;;;;;;;;;5.25;100.00;101190.16;4947917;28;20043;-73
2023/01/30 02:26:17;;;;;;;7.72;2.78;;;;;;;5.27;100.00;101188.34;4946050;28;19922;-73
2023/01/30 02:29:09;;;;;;;12.02;3.50;;;;;;;5.29;100.00;101176.06;4947053;28;20043;-73
2023/01/30 02:31:40;;;;;;;12.15;3.47;;;;;;;5.30;100.00;101177.78;4947669;28;20042;-74
2023/01/30 02:34:28;;;;;;;8.00;3.53;;;;;;;5.32;100.00;101177.78;4945566;28;20042;-73
2023/01/30 02:37:12;;;;;;;16.55;4.00;;;;;;;5.35;100.00;101175.09;4962880;28;20066;-73
2023/01/30 02:40:31;;;;;;;10.90;3.10;;;;;;;5.39;100.00;101173.28;4947730;28;20058;-74
2023/01/30 02:43:20;;;;;;;12.85;2.85;;;;;;;5.42;100.00;101178.47;4886754;29;20139;-72
2023/01/30 02:46:08;;;;;;;11.05;3.22;;;;;;;5.45;100.00;101160.00;4946980;28;20172;-72
2023/01/30 02:48:39;;;;;;;11.80;3.40;;;;;;;5.46;100.00;101168.78;4945770;28;20038;-73
2023/01/30 02:51:10;;;;;;;14.10;3.90;;;;;;;5.46;100.00;101156.53;4946440;28;20058;-73
2023/01/30 02:53:36;;;;;;;12.45;4.32;;;;;;;5.46;100.00;101167.03;4944062;28;20046;-73
2023/01/30 02:56:02;;;;;;;9.45;3.85;;;;;;;5.46;100.00;101148.63;4947536;28;20410;-76
2023/01/30 02:58:31;;;;;;;18.60;3.95;;;;;;;5.44;100.00;101143.41;4944844;28;20051;-73
2023/01/30 03:01:12;;;;;;;11.30;3.53;;;;;;;5.43;100.00;101162.69;4945399;28;20039;-72
2023/01/30 03:03:56;;;;;;;10.15;3.33;;;;;;;5.39;100.00;101170.66;4947523;28;20046;-72
2023/01/30 03:06:28;;;;;;;7.88;3.13;;;;;;;5.33;100.00;101152.41;4944603;28;20034;-72
2023/01/30 03:09:09;;;;;;;16.55;3.70;;;;;;;5.28;100.00;101155.06;4944184;28;20070;-73
2023/01/30 03:11:46;;;;;;;7.35;2.90;;;;;;;5.23;100.00;101154.31;4961635;28;20039;-72
2023/01/30 03:14:18;;;;;;;6.25;3.05;;;;;;;5.19;100.00;101156.13;4946750;28;20050;-73
2023/01/30 03:16:44;;;;;;;11.77;2.85;;;;;;;5.15;100.00;101159.69;4948152;28;20034;-73
2023/01/30 03:19:11;;;;;;;17.05;3.25;;;;;;;5.12;100.00;101157.13;4950143;28;20039;-73
2023/01/30 03:21:43;;;;;;;8.38;2.88;;;;;;;5.09;100.00;101162.44;4947985;28;20042;-73
2023/01/30 03:24:10;;;;;;;7.15;2.55;;;;;;;5.10;100.00;101158.91;4948234;28;20108;-72
2023/01/30 03:26:43;;;;;;;7.00;2.50;;;;;;;5.09;100.00;101157.19;4951290;28;20035;-73
2023/01/30 03:29:09;;;;;;;9.95;2.67;;;;;;;5.09;100.00;101159.81;4951468;28;20047;-72
2023/01/30 03:31:34;;;;;;;12.10;2.85;;;;;;;5.09;100.00;101159.81;4964388;28;20049;-73
2023/01/30 03:33:59;;;;;;;12.70;3.38;;;;;;;5.08;100.00;101171.19;4949119;28;20089;-73
2023/01/30 03:36:25;;;;;;;12.43;3.05;;;;;;;5.10;100.00;101169.41;4949290;28;21620;-72
2023/01/30 03:38:51;;;;;;;9.73;2.38;;;;;;;5.09;100.00;101159.81;4949219;28;20053;-73
2023/01/30 03:41:16;;;;;;;10.70;3.15;;;;;;;5.09;100.00;101168.56;4964059;28;20049;-74
2023/01/30 03:43:42;;;;;;;10.70;3.03;;;;;;;5.09;100.00;101165.03;4949895;28;20054;-73
2023/01/30 03:46:07;;;;;;;16.27;2.75;;;;;;;5.04;100.00;101178.25;4948030;28;20757;-73
2023/01/30 03:48:33;;;;;;;8.48;2.67;;;;;;;4.99;100.00;101173.09;4949004;28;21637;-73
2023/01/30 03:50:58;;;;;;;5.65;2.72;;;;;;;4.96;100.00;101162.63;4965822;28;22140;-73
2023/01/30 03:53:24;;;;;;;12.85;2.67;;;;;;;4.93;100.00;101159.19;4944423;28;20041;-74
2023/01/30 03:55:49;;;;;;;9.90;2.17;;;;;;;4.90;100.00;101160.09;4951032;28;21636;-73
2023/01/30 03:58:14;;;;;;;8.90;2.38;;;;;;;4.89;100.00;101151.38;4963274;28;20038;-73
2023/01/30 04:00:40;;;;;;;10.02;2.35;;;;;;;4.91;100.00;101158.34;4949490;28;21040;-73
2023/01/30 04:03:06;;;;;;;9.70;2.42;;;;;;;4.89;100.00;101151.38;4950715;28;20053;-73
2023/01/30 04:05:32;;;;;;;14.70;2.75;;;;;;;4.85;100.00;101154.09;4949272;28;20077;-73
2023/01/30 04:07:57;;;;;;;12.32;2.63;;;;;;;4.80;100.00;101151.53;4951121;28;20049;-72
2023/01/30 04:10:24;;;;;;;7.47;2.63;;;;;;;4.77;100.00;101167.31;4948931;28;20125;-73
2023/01/30 04:12:49;;;;;;;10.13;3.22;;;;;;;4.74;100.00;101163.00;4948556;28;20378;-73
2023/01/30 04:15:15;;;;;;;15.00;2.90;;;;;;;4.70;100.00;101161.31;4948546;28;20038;-73
2023/01/30 04:17:42;;;;;;;8.68;2.65;;;;;;;4.66;100.00;101169.25;4949139;28;20474;-71
2023/01/30 04:20:08;;;;;;;11.77;2.38;;;;;;;4.61;100.00;101170.19;4930625;28;20264;-73
2023/01/30 04:22:33;;;;;;;9.75;2.65;;;;;;;4.59;100.00;101178.97;4948894;28;20038;-72
2023/01/30 04:24:59;;;;;;;15.38;2.70;;;;;;;4.54;100.00;101172.91;4950246;28;20105;-72
2023/01/30 04:27:24;;;;;;;6.90;2.50;;;;;;;4.53;100.00;101174.66;4950696;28;20097;-72
2023/01/30 04:29:50;;;;;;;6.38;2.30;;;;;;;4.52;100.00;101166.84;4949566;28;20042;-73
2023/01/30 04:32:15;;;;;;;14.30;2.50;;;;;;;4.51;100.00;101170.34;4947756;28;20042;-72
2023/01/30 04:34:42;;;;;;;13.48;2.08;;;;;;;4.47;100.00;101167.75;4964621;28;20049;-72
2023/01/30 04:37:08;;;;;;;11.00;2.38;;;;;;;4.46;100.00;101163.41;4948423;28;20030;-74
2023/01/30 04:39:33;;;;;;;10.45;2.78;;;;;;;4.45;100.00;101168.66;4959858;28;20038;-74
2023/01/30 04:41:59;;;;;;;8.80;2.00;;;;;;;4.44;100.00;101170.44;4945948;28;20529;-73
2023/01/30 04:44:24;;;;;;;9.35;2.80;;;;;;;4.45;100.00;101176.53;4947101;28;20074;-74
2023/01/30 04:46:49;;;;;;;14.00;2.30;;;;;;;4.46;100.00;101171.28;4945451;28;20454;-72
2023/01/30 04:49:15;;;;;;;11.98;2.10;;;;;;;4.43;100.00;101179.22;4947608;28;20430;-72
2023/01/30 04:51:40;;;;;;;9.15;2.67;;;;;;;4.41;100.00;101183.59;4945563;28;20069;-72
2023/01/30 04:54:06;;;;;;;7.40;2.28;;;;;;;4.39;100.00;101181.88;4947323;28;20108;-72
2023/01/30 04:56:31;;;;;;;4.78;1.90;;;;;;;4.36;100.00;101188.00;4945762;28;20042;-72
2023/01/30 04:58:57;;;;;;;16.92;2.28;;;;;;;4.34;100.00;101189.81;4946043;28;20089;-72
2023/01/30 05:01:24;;;;;;;12.05;1.90;;;;;;;4.33;100.00;101190.69;4944643;28;20031;-72
2023/01/30 05:03:50;;;;;;;11.82;2.60;;;;;;;4.33;100.00;101199.44;4945494;28;20038;-73
2023/01/30 05:06:16;;;;;;;6.30;2.25;;;;;;;4.30;100.00;101190.75;4945966;28;20090;-73
2023/01/30 05:08:41;;;;;;;12.00;2.53;;;;;;;4.30;100.00;101199.47;4928720;28;21653;-72
2023/01/30 05:11:07;;;;;;;8.32;2.05;;;;;;;4.29;100.00;101197.72;4946675;28;20186;-72
2023/01/30 05:13:32;;;;;;;9.75;1.90;;;;;;;4.30;100.00;101206.47;4942446;28;20781;-72
2023/01/30 05:15:58;;;;;;;14.18;2.45;;;;;;;4.28;100.00;101208.22;4945012;28;20162;-72
2023/01/30 05:18:23;;;;;;;11.73;2.85;;;;;;;4.26;100.00;101204.78;4944852;28;20177;-73
2023/01/30 05:20:49;;;;;;;14.25;2.25;;;;;;;4.24;100.00;101201.31;4946875;28;20097;-72
2023/01/30 05:23:14;;;;;;;11.98;1.73;;;;;;;4.24;100.00;101209.19;4943122;28;20061;-73
2023/01/30 05:25:40;;;;;;;11.70;2.45;;;;;;;4.21;100.00;101199.59;4946749;28;20038;-73
2023/01/30 05:28:05;;;;;;;9.85;2.03;;;;;;;4.19;100.00;101194.38;4946648;28;20573;-72
2023/01/30 05:30:31;;;;;;;9.70;2.22;;;;;;;4.16;100.00;101201.41;4943037;28;20717;-73
2023/01/30 05:32:57;;;;;;;12.27;2.10;;;;;;;4.13;100.00;101194.44;4946358;28;20089;-73
2023/01/30 05:35:23;;;;;;;10.65;2.22;;;;;;;4.12;100.00;101189.22;4946423;28;20502;-72
2023/01/30 05:37:51;;;;;;;10.10;2.05;;;;;;;4.11;100.00;101197.97;4939648;28;20049;-73
2023/01/30 05:40:17;;;;;;;11.85;2.15;;;;;;;4.07;100.00;101194.53;4943716;28;20505;-73
2023/01/30 05:42:42;;;;;;;12.45;2.50;;;;;;;4.05;100.00;101201.53;4946604;28;20043;-73
2023/01/30 05:45:08;;;;;;;8.45;1.58;;;;;;;4.06;100.00;101203.28;4946164;28;20470;-74
2023/01/30 05:47:34;;;;;;;11.55;2.78;;;;;;;4.07;100.00;101200.66;4944623;28;20069;-71
2023/01/30 05:49:59;;;;;;;7.60;1.50;;;;;;;4.07;100.00;101207.63;4946040;28;20047;-72
2023/01/30 05:52:25;;;;;;;15.00;2.53;;;;;;;4.13;100.00;101206.69;4944632;28;20062;-74
2023/01/30 05:54:59;;;;;;;10.50;1.80;;;;;;;4.15;100.00;101199.69;4944703;28;20693;-73
2023/01/30 05:57:24;;;;;;;9.38;1.73;;;;;;;4.16;100.00;101197.03;4946479;28;20031;-72
2023/01/30 05:59:50;;;;;;;9.27;2.10;;;;;;;4.17;100.00;101203.13;4945487;28;20042;-73
2023/01/30 06:02:16;;;;;;;9.50;1.80;;;;;;;4.19;100.00;101217.97;4945842;28;20187;-72
2023/01/30 06:04:41;;;;;;;13.90;2.28;;;;;;;4.24;100.00;101215.28;4942429;28;20266;-73
2023/01/30 06:07:06;;;;;;;10.07;2.30;;;;;;;4.28;100.00;101213.47;4946078;28;20047;-73
2023/01/30 06:09:32;;;;;;;8.30;1.40;;;;;;;4.28;100.00;101203.00;4945502;28;20297;-72
2023/01/30 06:11:57;;;;;;;6.63;2.15;;;;;;;4.28;100.00;101200.38;4945490;28;20357;-73
2023/01/30 06:14:23;;;;;;;10.10;1.90;;;;;;;4.28;100.00;101196.00;4943473;28;20040;-72
2023/01/30 06:16:48;;;;;;;11.75;2.65;;;;;;;4.29;100.00;101199.47;4944725;28;20117;-72
2023/01/30 06:19:14;;;;;;;11.80;2.10;;;;;;;4.24;100.00;101210.03;4944338;28;20486;-72
2023/01/30 06:21:39;;;;;;;13.23;2.70;;;;;;;4.23;100.00;101197.81;4927885;28;20061;-71
2023/01/30 06:24:05;;;;;;;13.68;2.00;;;;;;;4.24;100.00;101220.50;4946492;28;20055;-73
2023/01/30 06:26:31;;;;;;;10.50;2.15;;;;;;;4.23;100.00;101217.94;4956511;28;20521;-71
2023/01/30 06:28:56;;;;;;;14.32;2.22;;;;;;;4.21;100.00;101213.56;4945673;28;20042;-72
2023/01/30 06:31:22;;;;;;;9.63;2.08;;;;;;;4.21;100.00;101204.84;4942320;28;20109;-73
2023/01/30 06:33:48;;;;;;;14.48;2.08;;;;;;;4.20;100.00;101206.59;4945597;28;20169;-73
2023/01/30 06:36:13;;;;;;;7.15;2.20;;;;;;;4.21;100.00;101197.81;4945314;28;20043;-73
2023/01/30 06:38:39;;;;;;;14.40;2.58;;;;;;;4.24;100.00;101201.31;4945943;28;20035;-73
2023/01/30 06:41:05;;;;;;;12.52;2.08;;;;;;;4.24;100.00;101217.03;4943636;28;20046;-71
2023/01/30 06:43:30;;;;;;;10.73;2.25;;;;;;;4.25;100.00;101214.38;4945035;28;20041;-72
2023/01/30 06:45:58;;;;;;;14.30;1.85;;;;;;;4.28;100.00;101203.88;4945700;28;20037;-72
2023/01/30 06:48:23;;;;;;;14.00;2.22;;;;;;;4.32;100.00;101223.91;4948871;28;20027;-73
2023/01/30 06:50:49;;;;;;;8.30;2.03;;;;;;;4.35;100.00;101228.22;4944087;28;20035;-72
2023/01/30 06:53:14;;;;;;;6.22;1.52;;;;;;;4.37;100.00;101231.72;4947747;28;20047;-72
2023/01/30 06:55:40;;;;;;;9.18;2.13;;;;;;;4.37;100.00;101238.72;4949430;28;20125;-72
2023/01/30 06:58:08;;;;;;;14.50;2.47;;;;;;;4.40;100.00;101236.06;4948854;28;20053;-73
2023/01/30 07:00:34;;;;;;;11.85;2.05;;;;;;;4.43;100.00;101234.28;4948979;28;20046;-73
2023/01/30 07:03:00;;;;;;;18.38;2.28;;;;;;;4.43;100.00;101231.66;4949477;28;20046;-72
2023/01/30 07:05:25;;;;;;;11.55;2.38;;;;;;;4.46;100.00;101231.59;4948825;28;20170;-73
2023/01/30 07:07:51;;;;;;;8.27;2.00;;;;;;;4.47;100.00;101224.59;4949102;28;20071;-73
2023/01/30 07:10:16;;;;;;;10.25;2.38;;;;;;;4.45;100.00;101227.25;4962898;28;20537;-73
2023/01/30 07:12:43;;;;;;;13.65;2.55;;;;;;;4.46;100.00;101226.34;4942307;28;20053;-73
2023/01/30 07:15:09;;;;;;;12.32;2.63;;;;;;;4.43;100.00;101226.41;4948854;28;21687;-72
2023/01/30 07:17:34;;;;;;;17.52;2.53;;;;;;;4.41;100.00;101238.66;4947056;28;20049;-73
2023/01/30 07:20:00;;;;;;;13.60;2.40;;;;;;;4.39;100.00;101244.78;4948533;28;20039;-72
2023/01/30 07:22:25;;;;;;;7.53;1.92;;;;;;;4.37;100.00;101239.59;4947101;28;22032;-72
2023/01/30 07:24:51;;;;;;;11.18;1.90;;;;;;;4.35;100.00;101230.84;4948844;28;20322;-73
2023/01/30 07:27:16;;;;;;;12.68;2.53;;;;;;;4.32;100.00;101237.00;4948316;28;20865;-73
2023/01/30 07:29:41;;;;;;;13.00;2.00;;;;;;;4.32;100.00;101238.78;4947198;28;20137;-73
2023/01/30 07:32:13;;;;;;;12.75;2.28;;;;;;;4.34;100.00;101242.22;4948761;28;20039;-72
2023/01/30 07:34:38;;;;;;;14.07;2.50;;;;;;;4.33;100.00;101246.63;4963156;28;20949;-72
2023/01/30 07:37:04;;;;;;;9.40;1.95;;;;;;;4.34;100.00;101242.22;4946802;28;20089;-72
2023/01/30 07:39:29;;;;;;;12.68;2.50;;;;;;;4.39;100.00;101244.78;4947985;28;20104;-73
2023/01/30 07:41:55;;;;;;;6.53;2.10;;;;;;;4.42;100.00;101240.38;4926935;28;21425;-72
2023/01/30 07:44:20;;;;;;;16.20;2.65;;;;;;;4.46;100.00;101249.94;4948502;28;22008;-72
2023/01/30 07:46:46;;;;;;;12.38;2.22;;;;;;;4.51;100.00;101242.00;4962096;28;20038;-72
2023/01/30 07:49:11;;;;;;;10.30;2.50;;;;;;;4.54;100.00;101248.97;4948221;28;20053;-72
2023/01/30 07:51:37;;;;;;;10.27;1.85;;;;;;;4.56;100.00;101253.31;4943775;28;20046;-73
2023/01/30 07:54:03;;;;;;;12.57;2.67;;;;;;;4.58;100.00;101250.69;4947345;28;20051;-73
2023/01/30 07:56:29;;;;;;;13.30;2.42;;;;;;;4.59;100.00;101247.16;4947654;28;20061;-72
2023/01/30 07:58:54;;;;;;;14.48;2.40;;;;;;;4.57;100.00;101251.56;4947784;28;20518;-72
2023/01/30 08:01:20;;;;;;;13.88;2.70;;;;;;;4.57;100.00;101254.19;4947524;28;20027;-72
2023/01/30 08:03:47;;;;;;;12.85;2.53;;;;;;;4.58;100.00;101255.91;4946168;28;20041;-72
2023/01/30 08:06:14;;;;;;;14.43;3.03;;;;;;;4.57;100.00;101265.53;4956762;28;20035;-72
2023/01/30 08:08:40;;;;;;;14.85;2.25;;;;;;;4.56;100.00;101258.56;4946307;28;20465;-72
2023/01/30 08:11:05;;;;;;;14.30;2.38;;;;;;;4.56;100.00;101270.78;4941162;28;20721;-72
2023/01/30 08:13:31;;;;;;;14.23;2.20;;;;;;;4.55;100.00;101264.69;4941452;28;20045;-72
2023/01/30 08:16:00;;;;;;;15.30;3.03;;;;;;;4.55;100.00;101234.97;4943692;28;20049;-72
2023/01/30 08:18:30;;;;;;;23.48;3.33;;;;;;;4.53;100.00;101255.97;4943822;28;20027;-73
2023/01/30 08:20:57;;;;;;;11.68;3.50;;;;;;;4.53;100.00;101258.56;4943209;28;20042;-72
2023/01/30 08:23:22;;;;;;;13.48;3.10;;;;;;;4.55;100.00;101269.06;4942196;28;20034;-72
2023/01/30 08:25:48;;;;;;;19.73;4.55;;;;;;;4.56;100.00;101265.53;4932121;28;20439;-73
2023/01/30 08:28:13;;;;;;;11.80;2.88;;;;;;;4.58;100.00;101274.28;4941810;28;20046;-73
2023/01/30 08:30:40;;;;;;;13.10;2.53;;;;;;;4.61;100.00;101297.81;4946013;28;20462;-73
2023/01/30 08:33:05;;;;;;;15.52;2.60;;;;;;;4.62;100.00;101284.69;4961535;28;20414;-74
2023/01/30 08:35:31;;;;;;;12.63;2.38;;;;;;;4.62;100.00;101284.69;4944703;28;20058;-72
2023/01/30 08:37:56;;;;;;;11.35;3.17;;;;;;;4.64;100.00;101294.28;4940937;28;20045;-72
2023/01/30 08:40:22;;;;;;;11.65;2.17;;;;;;;4.68;100.00;101298.63;4944817;28;20051;-74
2023/01/30 08:42:47;;;;;;;14.07;2.50;;;;;;;4.75;100.00;101298.50;4939594;28;20105;-73
2023/01/30 08:45:13;;;;;;;11.25;2.83;;;;;;;4.83;100.00;101281.78;4943730;28;20042;-73
2023/01/30 08:47:38;;;;;;;10.77;2.35;;;;;;;4.89;100.00;101279.06;4917378;28;20044;-72
2023/01/30 08:50:04;;;;;;;11.07;2.38;;;;;;;4.93;100.00;101283.41;4941958;28;20039;-73
2023/01/30 08:52:33;;;;;;;15.63;3.00;;;;;;;4.97;100.00;101277.19;4940009;28;20090;-73
2023/01/30 08:54:58;;;;;;;14.00;2.47;;;;;;;4.98;100.00;101297.34;4941615;28;20101;-73
2023/01/30 08:57:24;;;;;;;14.23;3.30;;;;;;;5.01;100.00;101281.53;4940314;28;20086;-72
2023/01/30 08:59:52;;;;;;;15.55;2.80;;;;;;;5.00;100.00;101287.66;4941626;28;20777;-72
2023/01/30 09:02:18;;;;;;;11.60;3.38;;;;;;;4.98;100.00;101271.09;4939850;28;20502;-73
2023/01/30 09:04:43;;;;;;;11.57;2.13;;;;;;;4.97;100.00;101268.47;4938363;28;20058;-73
2023/01/30 09:07:09;;;;;;;9.70;3.05;;;;;;;4.97;100.00;101279.81;4957222;28;20554;-72
2023/01/30 09:09:34;;;;;;;9.90;2.50;;;;;;;4.97;100.00;101273.72;4934564;28;20525;-73
2023/01/30 09:12:00;;;;;;;11.02;2.30;;;;;;;5.02;100.00;101266.66;4937955;28;20081;-73
2023/01/30 09:14:25;;;;;;;11.77;2.20;;;;;;;5.07;100.00;101267.44;4924427;28;20049;-72
2023/01/30 09:16:54;;;;;;;14.07;2.00;;;;;;;5.16;100.00;101259.44;4938897;28;20620;-73
2023/01/30 09:19:24;;;;;;;11.15;2.40;;;;;;;5.22;100.00;101292.56;4940334;28;20042;-72
2023/01/30 09:21:51;;;;;;;12.73;2.22;;;;;;;5.29;100.00;101280.25;4943184;28;20477;-75
2023/01/30 09:24:16;;;;;;;17.05;3.38;;;;;;;5.34;100.00;101280.16;4952353;28;20465;-74
2023/01/30 09:26:43;;;;;;;13.63;3.58;;;;;;;5.36;100.00;101284.50;4943953;28;20049;-73
2023/01/30 09:29:13;;;;;;;17.45;2.92;;;;;;;5.37;100.00;101278.34;4944158;28;20090;-73
2023/01/30 09:31:38;;;;;;;12.98;3.00;;;;;;;5.38;100.00;101274.81;4947332;28;20137;-72
2023/01/30 09:34:04;;;;;;;9.20;2.70;;;;;;;5.38;100.00;101276.56;4954060;28;20042;-72
2023/01/30 09:36:29;;;;;;;12.52;2.65;;;;;;;5.39;100.00;101279.16;4944975;28;20090;-71
2023/01/30 09:38:55;;;;;;;17.90;3.13;;;;;;;5.43;100.00;101301.00;4952568;28;20338;-72
2023/01/30 09:41:48;;;;;;;12.98;2.38;;;;;;;5.41;100.00;101284.41;4939185;28;20695;-72
2023/01/30 09:44:45;;;;;;;10.98;3.00;;;;;;;5.39;100.00;101283.56;4941186;28;21576;-73
2023/01/30 09:47:17;;;;;;;7.18;1.90;;;;;;;5.36;100.00;101292.38;4942266;28;20038;-73
2023/01/30 09:50:05;;;;;;;14.98;2.40;;;;;;;5.35;100.00;101303.78;4941191;28;20035;-73
2023/01/30 09:53:05;;;;;;;13.18;2.85;;;;;;;5.34;100.00;101309.03;4944830;28;20038;-73
2023/01/30 09:55:36;;;;;;;6.80;1.88;;;;;;;5.37;100.00;101306.34;4943346;28;20050;-73
2023/01/30 09:58:02;;;;;;;10.65;2.75;;;;;;;5.39;100.00;101299.34;4940732;28;20042;-75
2023/01/30 10:00:34;;;;;;;11.65;3.10;;;;;;;5.45;100.00;101296.56;4944671;28;20039;-74
2023/01/30 10:03:07;;;;;;;8.02;2.75;;;;;;;5.48;100.00;101301.78;4943382;28;20105;-73
2023/01/30 10:05:55;;;;;;;12.13;2.65;;;;;;;5.55;100.00;101310.41;4944329;28;20046;-74
2023/01/30 10:08:42;;;;;;;13.75;2.45;;;;;;;5.61;100.00;101312.94;4939268;28;20031;-74
2023/01/30 10:11:16;;;;;;;13.35;2.70;;;;;;;5.70;100.00;101306.66;4943165;28;20046;-74
2023/01/30 10:13:51;;;;;;;15.48;2.47;;;;;;;5.77;100.00;101329.31;4939944;28;20126;-74
2023/01/30 10:16:35;;;;;;;6.75;2.05;;;;;;;5.80;100.00;101326.66;4938559;28;20099;-73
2023/01/30 10:19:10;;;;;;;13.68;2.83;;;;;;;5.77;100.00;101321.44;4939695;28;20039;-74
2023/01/30 10:21:46;;;;;;;21.10;3.13;;;;;;;5.80;100.00;101333.66;4939251;28;20034;-73
2023/01/30 10:24:20;;;;;;;15.52;3.13;;;;;;;5.85;100.00;101344.97;4941218;28;20047;-74
2023/01/30 10:26:47;;;;;;;13.77;2.47;;;;;;;5.92;100.00;101356.22;4941798;28;20154;-74
2023/01/30 10:29:34;;;;;;;10.68;1.98;;;;;;;5.96;100.00;101352.66;4942835;28;20031;-73
2023/01/30 10:32:20;;;;;;;14.55;3.05;;;;;;;5.98;100.00;101337.72;4937922;28;20043;-73
2023/01/30 10:34:51;;;;;;;15.23;2.08;;;;;;;6.01;100.00;101326.28;4932250;28;20043;-75
2023/01/30 10:37:23;;;;;;;12.38;2.00;;;;;;;6.03;100.00;101346.41;4939946;28;20049;-73
2023/01/30 10:40:05;;;;;;;22.17;3.72;;;;;;;6.06;100.00;101345.50;4935871;28;20035;-74
2023/01/30 10:42:39;;;;;;;11.50;2.70;;;;;;;6.08;100.00;101339.31;4917637;28;20047;-73
2023/01/30 10:45:19;;;;;;;9.35;1.75;;;;;;;6.05;100.00;101373.53;4939295;28;20030;-73
2023/01/30 10:48:20;;;;;;;10.10;1.83;;;;;;;5.93;100.00;101376.34;4939691;28;20043;-73
2023/01/30 10:50:52;;;;;;;7.35;1.85;;;;;;;5.83;100.00;101387.03;4924217;28;20066;-73
2023/01/30 10:53:50;;;;;;;7.38;1.88;;;;;;;5.66;100.00;101389.09;4940371;28;20047;-72
2023/01/30 10:56:20;;;;;;;13.48;2.53;;;;;;;5.50;100.00;101404.22;4937630;28;20145;-72
2023/01/30 10:59:02;;;;;;;4.70;1.63;;;;;;;5.38;100.00;101406.13;4943045;28;20045;-71
2023/01/30 11:01:41;;;;;;;9.95;1.67;;;;;;;5.26;100.00;101417.69;4943963;28;20058;-71
2023/01/30 11:04:18;;;;;;;3.92;1.30;;;;;;;5.10;100.00;101398.63;4938051;28;20181;-72
2023/01/30 11:06:44;;;;;;;4.55;1.00;;;;;;;4.97;100.00;101404.94;4938448;28;20198;-72
2023/01/30 11:09:09;;;;;;;4.93;1.98;;;;;;;4.84;100.00;101393.72;4935554;28;20700;-72
2023/01/30 11:11:51;;;;;;;10.25;2.17;;;;;;;4.79;100.00;101401.66;4941534;28;20042;-72
2023/01/30 11:14:16;;;;;;;15.75;2.38;;;;;;;4.79;100.00;101396.41;4942258;28;20058;-73
2023/01/30 11:16:53;;;;;;;12.20;2.33;;;;;;;4.86;100.00;101397.22;4941539;28;20178;-73
2023/01/30 11:19:22;;;;;;;12.40;1.88;;;;;;;5.00;100.00;101405.75;4955887;28;20069;-73
2023/01/30 11:21:58;;;;;;;14.77;2.28;;;;;;;5.18;100.00;101388.03;4956669;28;20827;-73
2023/01/30 11:24:38;;;;;;;16.55;2.47;;;;;;;5.36;100.00;101405.28;4939638;28;20079;-73
2023/01/30 11:27:10;;;;;;;11.00;2.25;;;;;;;5.52;100.00;101413.81;4941065;28;20042;-73
2023/01/30 11:29:39;;;;;;;8.10;1.92;;;;;;;5.61;100.00;101427.69;4943356;28;20039;-73
2023/01/30 11:32:11;;;;;;;9.63;1.80;;;;;;;5.64;100.00;101453.91;4944945;28;20086;-72
2023/01/30 11:34:42;;;;;;;10.50;2.23;;;;;;;5.50;100.00;101499.63;4943663;28;20034;-73
2023/01/30 11:37:24;;;;;;;6.28;1.38;;;;;;;5.01;100.00;101451.25;4940733;28;20127;-75